Time;durP1;ratioP1;P1;durP2;ratioP2;P2;SDS_P1;SDS_P2;PMS_P1;PMS_P2;Temp;Humidity;BMP_temperature;BMP_pressure;BME280_temperature;BME280_humidity;BME280_pressure;Samples;Min_cycle;Max_cycle;Signal;HPM_P1;HPM_P2
2023/02/23 00:01:52;;;;;;;24.83;17.20;;;;;;;10.64;50.00;100848.31;5069310;28;20139;-79
2023/02/23 00:04:19;;;;;;;23.35;16.73;;;;;;;10.60;50.05;100841.38;5051023;28;20056;-79
2023/02/23 00:06:50;;;;;;;22.95;17.10;;;;;;;10.60;49.91;100839.50;5050310;28;20047;-79
2023/02/23 00:09:23;;;;;;;23.60;17.08;;;;;;;10.59;49.97;100847.84;5068169;28;20044;-78
2023/02/23 00:11:51;;;;;;;22.00;16.40;;;;;;;10.55;50.40;100841.78;5067527;28;20110;-78
2023/02/23 00:14:20;;;;;;;21.73;17.00;;;;;;;10.55;50.34;100841.78;5064826;28;20295;-79
2023/02/23 00:16:47;;;;;;;22.10;17.80;;;;;;;10.55;49.97;100840.91;5066041;28;20077;-78
2023/02/23 00:19:16;;;;;;;23.65;17.13;;;;;;;10.53;50.06;100838.31;5076437;28;20044;-78
2023/02/23 00:21:44;;;;;;;23.73;17.65;;;;;;;10.51;50.05;100837.53;5076835;28;20098;-78
2023/02/23 00:24:15;;;;;;;22.80;17.77;;;;;;;10.53;50.44;100842.88;5073898;28;20041;-78
2023/02/23 00:26:44;;;;;;;24.35;16.92;;;;;;;10.50;50.64;100835.78;5067096;28;20135;-79
2023/02/23 00:29:15;;;;;;;22.48;16.75;;;;;;;10.49;50.23;100836.78;5060610;28;20036;-78
2023/02/23 00:31:44;;;;;;;21.65;16.42;;;;;;;10.46;50.63;100838.94;5068653;28;20053;-78
2023/02/23 00:34:15;;;;;;;21.70;16.67;;;;;;;10.48;50.60;100842.44;5068049;28;20075;-78
2023/02/23 00:36:43;;;;;;;23.38;17.45;;;;;;;10.45;50.30;100835.34;5069917;28;20037;-77
2023/02/23 00:39:20;;;;;;;24.63;16.95;;;;;;;10.45;51.04;100838.09;5057647;28;20127;-78
2023/02/23 00:41:49;;;;;;;21.90;16.73;;;;;;;10.43;51.03;100834.59;5052315;28;20044;-77
2023/02/23 00:44:16;;;;;;;22.55;16.77;;;;;;;10.41;50.65;100827.53;5053729;28;20040;-77
2023/02/23 00:46:47;;;;;;;24.10;16.70;;;;;;;10.41;50.73;100833.88;5051225;28;20049;-78
2023/02/23 00:49:16;;;;;;;20.60;16.00;;;;;;;10.39;50.68;100835.03;5069172;28;20754;-78
2023/02/23 00:51:44;;;;;;;23.38;16.92;;;;;;;10.37;50.69;100837.88;5061864;28;20049;-78
2023/02/23 00:54:14;;;;;;;22.85;17.05;;;;;;;10.38;51.15;100830.53;5067423;28;20041;-77
2023/02/23 00:56:42;;;;;;;23.27;16.80;;;;;;;10.36;50.80;100833.41;5066700;28;20048;-77
2023/02/23 00:59:11;;;;;;;22.35;16.92;;;;;;;10.36;50.94;100830.69;5050696;28;20044;-77
2023/02/23 01:01:40;;;;;;;22.75;16.85;;;;;;;10.35;50.79;100839.00;5068987;28;20040;-77
2023/02/23 01:04:09;;;;;;;22.80;16.92;;;;;;;10.32;51.07;100834.66;5052231;28;20067;-76
2023/02/23 01:06:39;;;;;;;23.38;17.00;;;;;;;10.33;51.21;100836.41;5064114;28;20106;-77
2023/02/23 01:09:08;;;;;;;23.30;17.42;;;;;;;10.32;50.90;100831.94;5049162;28;20051;-76
2023/02/23 01:11:40;;;;;;;23.20;17.67;;;;;;;10.32;51.33;100833.81;5049850;28;20067;-76
2023/02/23 01:14:09;;;;;;;22.73;17.35;;;;;;;10.30;50.86;100833.09;5049728;28;20059;-77
2023/02/23 01:16:38;;;;;;;21.45;16.67;;;;;;;10.29;51.30;100831.34;5062189;28;20542;-77
2023/02/23 01:19:07;;;;;;;23.05;17.60;;;;;;;10.27;50.91;100834.22;5049892;28;20268;-77
2023/02/23 01:21:38;;;;;;;22.50;16.55;;;;;;;10.28;51.37;100826.88;5045045;28;20037;-77
2023/02/23 01:24:06;;;;;;;23.00;16.80;;;;;;;10.26;50.89;100828.88;5067366;28;20040;-78
2023/02/23 01:26:37;;;;;;;22.45;16.83;;;;;;;10.26;51.30;100828.88;5065428;28;20045;-77
2023/02/23 01:29:09;;;;;;;22.85;17.17;;;;;;;10.26;51.36;100829.72;5066152;28;20047;-78
2023/02/23 01:31:39;;;;;;;25.97;17.30;;;;;;;10.21;51.15;100826.53;5066534;28;20040;-78
2023/02/23 01:34:10;;;;;;;22.20;16.73;;;;;;;10.23;51.27;100830.03;5055024;28;20045;-77
2023/02/23 01:36:40;;;;;;;21.38;16.65;;;;;;;10.21;51.45;100835.63;5048040;28;20049;-77
2023/02/23 01:39:12;;;;;;;23.52;17.85;;;;;;;10.21;51.75;100829.28;5070506;28;20557;-78
2023/02/23 01:41:42;;;;;;;;;;;;;;;9.93;52.62;100828.03;5066642;28;20067;-78
2023/02/23 01:44:43;;;;;;;21.25;14.90;;;;;;;10.15;51.92;100827.91;5068504;28;20034;-77
2023/02/23 01:47:16;;;;;;;21.52;15.18;;;;;;;10.15;52.04;100822.44;5066717;28;20127;-77
2023/02/23 01:49:44;;;;;;;21.35;16.75;;;;;;;10.14;51.31;100828.06;5068157;28;20053;-77
2023/02/23 01:52:14;;;;;;;21.98;15.93;;;;;;;10.15;51.45;100819.72;5065039;28;20036;-77
2023/02/23 01:54:49;;;;;;;23.90;17.60;;;;;;;10.15;51.39;100829.81;5058501;28;20685;-78
2023/02/23 01:57:17;;;;;;;23.42;17.38;;;;;;;10.12;51.80;100824.59;5078405;28;20086;-77
2023/02/23 01:59:47;;;;;;;24.35;17.92;;;;;;;10.13;51.51;100824.47;5056397;28;20052;-77
2023/02/23 02:02:20;;;;;;;22.05;16.98;;;;;;;10.12;52.02;100821.88;5058502;28;20731;-78
2023/02/23 02:04:50;;;;;;;22.48;16.88;;;;;;;10.10;51.56;100823.84;5073264;28;20033;-77
2023/02/23 02:07:22;;;;;;;24.20;16.98;;;;;;;10.12;51.80;100827.34;5058208;28;20177;-78
2023/02/23 02:12:37;;;;;;;22.70;17.25;;;;;;;10.08;51.49;100818.50;5053306;28;20045;-78
2023/02/23 02:15:15;;;;;;;21.80;16.48;;;;;;;10.10;51.88;100818.38;5055060;28;20094;-77
2023/02/23 02:17:58;;;;;;;23.67;17.38;;;;;;;10.10;52.60;100824.72;5074972;28;20055;-78
2023/02/23 02:20:41;;;;;;;21.60;16.80;;;;;;;10.08;52.27;100823.09;5069639;28;20052;-77
2023/02/23 02:23:46;;;;;;;24.45;17.63;;;;;;;10.06;52.47;100819.66;5049875;28;20055;-77
2023/02/23 02:26:26;;;;;;;21.75;16.25;;;;;;;10.06;52.53;100826.00;5049912;28;20424;-77
2023/02/23 02:29:19;;;;;;;24.38;17.27;;;;;;;10.05;52.81;100820.66;5070646;28;20102;-77
2023/02/23 02:32:30;;;;;;;23.42;17.50;;;;;;;9.98;52.74;100824.94;5065492;28;20596;-78
2023/02/23 02:35:37;;;;;;;23.47;16.70;;;;;;;9.97;52.46;100823.19;5065942;28;20042;-77
2023/02/23 02:38:17;;;;;;;21.85;16.17;;;;;;;9.99;52.68;100826.66;5072171;28;20066;-77
2023/02/23 02:40:53;;;;;;;22.25;16.55;;;;;;;9.96;52.20;100819.59;5049326;28;20075;-77
2023/02/23 02:43:31;;;;;;;25.42;17.88;;;;;;;9.96;52.19;100821.44;5052630;28;20044;-78
2023/02/23 02:46:05;;;;;;;21.70;16.52;;;;;;;9.94;52.21;100816.09;5060758;28;20135;-76
2023/02/23 02:48:44;;;;;;;24.95;17.23;;;;;;;9.93;52.71;100817.09;5069561;28;20112;-77
2023/02/23 02:51:20;;;;;;;22.10;16.70;;;;;;;9.91;52.75;100816.34;5043532;28;20079;-77
2023/02/23 02:53:56;;;;;;;23.92;17.25;;;;;;;9.90;52.53;100816.50;5053300;28;20052;-77
2023/02/23 02:56:26;;;;;;;23.83;17.50;;;;;;;9.88;52.58;100811.16;5065892;28;20041;-77
2023/02/23 02:58:55;;;;;;;23.92;17.73;;;;;;;9.86;52.04;100810.44;5052813;28;20097;-78
2023/02/23 04:18:20;;;;;;;37.08;22.27;;;;;;;9.53;53.11;100835.13;5059280;28;20056;-78
2023/02/23 04:20:48;;;;;;;31.20;21.05;;;;;;;9.53;53.04;100836.00;5069637;28;20049;-78
2023/02/23 04:23:17;;;;;;;35.45;21.88;;;;;;;9.52;52.62;100838.88;5065646;28;20085;-79
2023/02/23 04:25:46;;;;;;;35.60;21.83;;;;;;;9.53;53.16;100837.88;5070380;28;20431;-78
2023/02/23 04:28:15;;;;;;;33.53;21.00;;;;;;;9.53;52.87;100846.06;5076032;28;20053;-78
2023/02/23 04:30:43;;;;;;;31.60;21.17;;;;;;;9.53;52.91;100841.47;5064906;28;20120;-78
2023/02/23 04:33:11;;;;;;;35.05;22.58;;;;;;;9.53;52.99;100843.34;5047225;28;20049;-79
2023/02/23 04:35:41;;;;;;;30.48;20.23;;;;;;;9.54;52.90;100845.94;5066608;28;20076;-78
2023/02/23 04:38:09;;;;;;;28.90;19.40;;;;;;;9.53;52.70;100840.59;5053204;28;20128;-79
2023/02/23 04:40:37;;;;;;;32.15;20.60;;;;;;;9.52;53.16;100841.59;5066307;28;20049;-78
2023/02/23 04:43:04;;;;;;;31.73;20.63;;;;;;;9.52;52.94;100842.47;5069905;28;20048;-78
2023/02/23 04:45:33;;;;;;;31.92;20.42;;;;;;;9.52;53.01;100838.88;5051927;28;20147;-78
2023/02/23 04:48:01;;;;;;;29.75;19.75;;;;;;;9.51;53.16;100835.25;5062122;28;21772;-78
2023/02/23 04:50:29;;;;;;;33.40;21.33;;;;;;;9.52;53.19;100845.19;5046950;28;20045;-78
2023/02/23 04:53:00;;;;;;;30.30;19.90;;;;;;;9.53;53.02;100846.06;5062137;28;20052;-78
2023/02/23 04:55:28;;;;;;;32.22;20.48;;;;;;;9.52;52.94;100844.31;5067348;28;20059;-79
2023/02/23 04:57:57;;;;;;;33.97;20.67;;;;;;;9.53;52.90;100849.66;5047686;28;20078;-78
2023/02/23 05:00:26;;;;;;;31.90;20.65;;;;;;;9.51;53.12;100843.47;5064874;28;20132;-78
2023/02/23 05:02:54;;;;;;;32.28;20.13;;;;;;;9.52;53.15;100847.94;5051132;28;20655;-77
2023/02/23 05:05:21;;;;;;;30.67;20.20;;;;;;;9.52;53.09;100842.47;5075864;28;20048;-78
2023/02/23 05:07:49;;;;;;;30.80;20.35;;;;;;;9.53;53.10;100846.94;5074455;28;20078;-78
2023/02/23 05:10:18;;;;;;;29.58;19.20;;;;;;;9.53;52.76;100843.34;5072402;28;20695;-78
2023/02/23 05:12:46;;;;;;;33.35;21.92;;;;;;;9.52;53.25;100844.31;5053620;28;20552;-78
2023/02/23 05:15:14;;;;;;;30.13;19.67;;;;;;;9.53;52.98;100848.81;5050921;28;20093;-77
2023/02/23 05:17:42;;;;;;;28.38;18.77;;;;;;;9.53;53.35;100851.53;5062340;28;20052;-76
2023/02/23 05:20:12;;;;;;;31.13;19.98;;;;;;;9.54;53.42;100854.13;5037638;28;20041;-77
2023/02/23 05:22:41;;;;;;;29.17;19.30;;;;;;;9.52;52.85;100845.19;5067931;28;20504;-77
2023/02/23 05:25:10;;;;;;;30.30;20.13;;;;;;;9.53;52.94;100855.13;5064012;28;20044;-77
2023/02/23 05:27:40;;;;;;;29.85;18.95;;;;;;;9.54;53.23;100851.41;5064975;28;20040;-78
2023/02/23 05:30:09;;;;;;;32.28;19.60;;;;;;;9.54;52.79;100861.47;5053573;28;20041;-78
2023/02/23 05:32:37;;;;;;;27.08;18.35;;;;;;;9.53;53.21;100857.88;5072440;28;20048;-77
2023/02/23 05:35:06;;;;;;;29.75;18.92;;;;;;;9.52;53.12;100855.25;5057208;28;20466;-77
2023/02/23 05:37:34;;;;;;;27.13;18.60;;;;;;;9.51;52.96;100854.38;5069100;28;20057;-77
2023/02/23 05:40:02;;;;;;;29.35;18.90;;;;;;;9.52;52.98;100858.00;5054533;28;20044;-77
2023/02/23 05:42:29;;;;;;;30.65;18.83;;;;;;;9.52;53.05;100858.00;5067332;28;20037;-78
2023/02/23 05:44:58;;;;;;;26.83;18.00;;;;;;;9.54;52.82;100864.19;5070884;28;20093;-80
2023/02/23 05:47:26;;;;;;;28.08;18.27;;;;;;;9.52;52.92;100866.19;5053712;28;20136;-77
2023/02/23 05:49:54;;;;;;;28.50;18.00;;;;;;;9.52;52.95;100858.00;5078368;28;20052;-78
2023/02/23 05:52:22;;;;;;;28.27;18.20;;;;;;;9.51;53.13;100861.72;5081047;28;20563;-78
2023/02/23 05:54:50;;;;;;;26.52;17.40;;;;;;;9.50;53.41;100857.25;5046041;28;20239;-78
2023/02/23 05:57:18;;;;;;;26.90;17.30;;;;;;;9.50;53.03;100862.69;5071063;28;20056;-78
2023/02/23 05:59:45;;;;;;;27.20;16.65;;;;;;;9.50;52.83;100865.44;5067839;28;20040;-77
2023/02/23 06:02:15;;;;;;;26.85;17.45;;;;;;;9.51;53.47;100861.72;5048932;28;20040;-78
2023/02/23 06:04:42;;;;;;;29.15;18.20;;;;;;;9.48;52.83;100868.31;5060490;28;20045;-78
2023/02/23 06:07:10;;;;;;;30.48;19.20;;;;;;;9.48;52.98;100856.53;5054388;28;20515;-78
2023/02/23 06:09:38;;;;;;;27.60;17.73;;;;;;;9.47;53.13;100866.59;5067945;28;20052;-78
2023/02/23 06:12:06;;;;;;;30.15;18.77;;;;;;;9.45;52.96;100866.69;5048287;28;20679;-79
2023/02/23 06:14:34;;;;;;;28.27;18.25;;;;;;;9.46;53.40;100873.03;5048349;28;20648;-79
2023/02/23 06:17:01;;;;;;;30.35;18.38;;;;;;;9.46;53.40;100878.50;5054982;28;20049;-79
2023/02/23 06:19:31;;;;;;;30.25;18.90;;;;;;;9.48;53.38;100881.13;5077567;28;20075;-77
2023/02/23 06:21:59;;;;;;;28.63;18.92;;;;;;;9.45;53.38;100883.09;5066700;28;20135;-77
2023/02/23 06:24:27;;;;;;;29.08;19.42;;;;;;;9.47;53.23;100882.97;5054291;28;20049;-78
2023/02/23 06:26:55;;;;;;;31.13;20.20;;;;;;;9.45;53.32;100887.69;5072620;28;20569;-77
2023/02/23 06:29:23;;;;;;;30.20;19.25;;;;;;;9.44;53.38;100889.53;5044842;28;20059;-80
2023/02/23 06:31:51;;;;;;;30.50;19.13;;;;;;;9.44;53.54;100880.47;5050773;28;20048;-78
2023/02/23 06:34:19;;;;;;;30.25;20.48;;;;;;;9.45;53.27;100895.88;5067086;28;20040;-78
2023/02/23 06:36:49;;;;;;;30.35;19.75;;;;;;;9.44;53.18;100892.28;5049719;28;20576;-78
2023/02/23 06:39:16;;;;;;;27.60;18.45;;;;;;;9.44;53.04;100896.88;5055510;28;20086;-77
2023/02/23 06:41:44;;;;;;;29.95;19.15;;;;;;;9.43;53.03;100893.28;5053759;28;20052;-77
2023/02/23 06:44:12;;;;;;;35.80;20.85;;;;;;;9.44;53.56;100894.13;5053473;28;20059;-77
2023/02/23 06:46:40;;;;;;;31.17;19.77;;;;;;;9.44;53.21;100905.06;5071462;28;20036;-78
2023/02/23 06:49:08;;;;;;;32.95;21.35;;;;;;;9.44;53.53;100902.34;5068676;28;20060;-78
2023/02/23 06:51:36;;;;;;;32.17;20.33;;;;;;;9.44;53.67;100914.13;5062018;28;20044;-78
2023/02/23 06:54:05;;;;;;;28.92;19.23;;;;;;;9.45;53.65;100915.00;5065772;28;20119;-77
2023/02/23 06:56:33;;;;;;;34.47;20.67;;;;;;;9.43;53.15;100911.53;5047039;28;20106;-76
2023/02/23 06:59:00;;;;;;;34.00;21.45;;;;;;;9.44;53.55;100924.19;5066589;28;20095;-77
2023/02/23 07:01:29;;;;;;;31.45;20.90;;;;;;;9.42;53.33;100920.72;5067118;28;20045;-77
2023/02/23 07:03:57;;;;;;;31.10;20.35;;;;;;;9.42;53.27;100927.03;5068394;28;20041;-77
2023/02/23 07:06:25;;;;;;;32.03;20.50;;;;;;;9.41;53.60;100922.56;5051183;28;20090;-78
2023/02/23 07:08:53;;;;;;;30.73;20.90;;;;;;;9.41;53.34;100924.47;5068804;28;20083;-77
2023/02/23 07:11:22;;;;;;;33.72;20.85;;;;;;;9.41;53.22;100929.94;5068015;28;20439;-77
2023/02/23 07:13:50;;;;;;;33.85;20.48;;;;;;;9.40;53.01;100930.91;5066450;28;20051;-77
2023/02/23 07:16:17;;;;;;;36.15;21.52;;;;;;;9.39;53.14;100940.97;5045754;28;20053;-77
2023/02/23 07:18:45;;;;;;;32.53;20.98;;;;;;;9.39;53.35;100940.09;5069411;28;20082;-77
2023/02/23 07:21:13;;;;;;;34.80;21.65;;;;;;;9.39;53.67;100943.69;5051449;28;20458;-78
2023/02/23 07:23:41;;;;;;;36.22;21.33;;;;;;;9.39;53.23;100934.63;5066600;28;20045;-77
2023/02/23 07:26:11;;;;;;;33.70;21.00;;;;;;;9.39;53.43;100935.50;5065798;28;20045;-77
2023/02/23 07:28:40;;;;;;;32.60;20.67;;;;;;;9.39;53.15;100943.69;5064864;28;20048;-76
2023/02/23 07:31:08;;;;;;;35.10;21.30;;;;;;;9.38;53.64;100941.97;5061294;28;20037;-77
2023/02/23 07:33:35;;;;;;;32.03;21.17;;;;;;;9.38;53.18;100944.69;5048007;28;20053;-77
2023/02/23 07:36:04;;;;;;;29.70;19.80;;;;;;;9.39;53.37;100951.03;5062847;28;20056;-77
2023/02/23 07:38:32;;;;;;;29.90;19.85;;;;;;;9.37;52.98;100948.38;5064813;28;20040;-76
2023/02/23 07:40:59;;;;;;;29.70;21.00;;;;;;;9.38;53.61;100960.19;5068774;28;20044;-76
2023/02/23 07:43:27;;;;;;;29.17;19.80;;;;;;;9.38;53.63;100954.72;5062944;28;20051;-77
2023/02/23 07:45:59;;;;;;;29.75;19.75;;;;;;;9.39;53.66;100956.50;5066463;28;20052;-76
2023/02/23 07:48:27;;;;;;;27.67;18.45;;;;;;;9.37;53.37;100961.16;5066284;28;20044;-77
2023/02/23 07:50:55;;;;;;;27.15;18.85;;;;;;;9.35;53.52;100958.56;5046070;28;20032;-76
2023/02/23 07:53:26;;;;;;;28.42;18.63;;;;;;;9.37;53.35;100970.22;5066126;28;20044;-76
2023/02/23 07:55:57;;;;;;;24.20;17.38;;;;;;;9.38;53.99;100962.91;5064295;28;20052;-77
2023/02/23 07:58:25;;;;;;;27.73;17.73;;;;;;;9.37;53.38;100972.09;5049579;28;20044;-77
2023/02/23 08:00:53;;;;;;;27.92;19.13;;;;;;;9.37;53.47;100961.16;5066634;28;20059;-76
2023/02/23 08:03:22;;;;;;;25.65;17.63;;;;;;;9.39;53.70;100975.59;5050365;28;20049;-77
2023/02/23 08:05:50;;;;;;;26.08;17.30;;;;;;;9.37;53.96;100975.69;5049804;28;20508;-77
2023/02/23 08:08:18;;;;;;;24.88;17.52;;;;;;;9.38;53.68;100973.84;5045609;28;20090;-77
2023/02/23 08:10:46;;;;;;;23.02;16.15;;;;;;;9.38;53.56;100972.00;5064786;28;20328;-77
2023/02/23 08:13:17;;;;;;;23.55;16.27;;;;;;;9.38;53.45;100972.00;5051128;28;20639;-77
2023/02/23 08:15:45;;;;;;;27.00;18.05;;;;;;;9.39;53.42;100975.59;5049963;28;20048;-77
2023/02/23 08:18:12;;;;;;;22.42;16.00;;;;;;;9.38;53.57;100982.94;5068160;28;20123;-77
2023/02/23 08:20:42;;;;;;;22.25;16.20;;;;;;;9.41;53.55;100984.56;5062955;28;20102;-77
2023/02/23 08:23:10;;;;;;;24.88;16.98;;;;;;;9.39;53.54;100976.47;5066027;28;20041;-77
2023/02/23 08:25:38;;;;;;;25.13;16.55;;;;;;;9.39;53.50;100981.06;5062754;28;20546;-77
2023/02/23 08:28:06;;;;;;;22.58;15.60;;;;;;;9.40;53.57;100988.28;5068338;28;20102;-77
2023/02/23 08:30:34;;;;;;;22.65;15.55;;;;;;;9.39;53.55;100987.41;5060934;28;20086;-77
2023/02/23 08:33:02;;;;;;;21.70;15.40;;;;;;;9.39;53.79;100995.59;5064892;28;20037;-77
2023/02/23 08:35:30;;;;;;;22.02;14.98;;;;;;;9.38;53.49;100999.31;5063480;28;20094;-76
2023/02/23 08:37:59;;;;;;;20.92;15.35;;;;;;;9.40;53.86;100991.88;5066291;28;20056;-77
2023/02/23 08:40:28;;;;;;;23.40;14.50;;;;;;;9.39;53.83;101003.78;5046998;28;20049;-77
2023/02/23 08:42:56;;;;;;;23.02;15.20;;;;;;;9.40;53.55;101000.06;5050330;28;20044;-76
2023/02/23 08:45:24;;;;;;;22.77;15.85;;;;;;;9.41;53.38;101006.41;5065197;28;20059;-76
2023/02/23 08:47:54;;;;;;;22.88;15.18;;;;;;;9.44;53.78;101006.13;5065627;28;20033;-76
2023/02/23 08:50:22;;;;;;;24.05;15.75;;;;;;;9.43;53.85;101009.88;5062466;28;20048;-76
2023/02/23 08:52:54;;;;;;;24.88;15.40;;;;;;;9.43;53.84;101008.00;5068340;28;20600;-77
2023/02/23 08:55:23;;;;;;;28.83;16.25;;;;;;;9.45;53.77;101013.34;5050767;28;20048;-77
2023/02/23 08:57:51;;;;;;;27.52;16.67;;;;;;;9.44;53.56;101008.88;5060954;28;20492;-76
2023/02/23 09:00:19;;;;;;;27.27;16.10;;;;;;;9.46;53.66;101015.09;5061081;28;20396;-77
2023/02/23 09:02:47;;;;;;;28.73;17.38;;;;;;;9.45;53.77;101013.34;5061873;28;20135;-76
2023/02/23 09:05:16;;;;;;;31.20;18.02;;;;;;;9.47;53.60;101011.38;5066301;28;20041;-76
2023/02/23 09:07:45;;;;;;;29.13;17.63;;;;;;;9.48;53.78;101013.13;5063691;28;20057;-76
2023/02/23 09:10:14;;;;;;;33.63;18.90;;;;;;;9.48;53.55;101013.13;5042829;28;20041;-76
2023/02/23 09:12:44;;;;;;;28.88;17.63;;;;;;;9.50;53.86;101019.28;5048251;28;20131;-77
2023/02/23 09:15:12;;;;;;;31.00;18.35;;;;;;;9.49;54.06;101020.31;5044034;28;20091;-76
2023/02/23 09:17:43;;;;;;;30.08;18.80;;;;;;;9.50;53.87;101018.44;5070048;28;20051;-76
2023/02/23 09:20:14;;;;;;;31.75;18.13;;;;;;;9.51;53.53;101023.78;5060766;28;20044;-77
2023/02/23 09:22:47;;;;;;;32.13;18.88;;;;;;;9.53;54.12;101024.53;5067276;28;20135;-76
2023/02/23 09:25:17;;;;;;;32.25;18.10;;;;;;;9.52;53.88;101030.09;5046957;28;20106;-76
2023/02/23 09:27:46;;;;;;;32.30;19.42;;;;;;;9.55;53.66;101029.88;5048799;28;20051;-76
2023/02/23 09:30:19;;;;;;;34.15;20.02;;;;;;;9.56;53.82;101023.41;5061870;28;20044;-76
2023/02/23 09:32:47;;;;;;;;;;;;;;;9.31;54.67;101025.34;5066154;28;20064;-77
2023/02/23 09:35:16;;;;;;;30.45;17.58;;;;;;;9.54;54.24;101028.13;5061850;28;19932;-76
2023/02/23 09:37:46;;;;;;;33.72;18.67;;;;;;;9.58;54.00;101027.75;5064452;28;20110;-77
2023/02/23 09:40:16;;;;;;;30.38;18.10;;;;;;;9.62;53.85;101034.72;5049276;28;20052;-77
2023/02/23 09:42:57;;;;;;;31.60;18.98;;;;;;;9.64;54.41;101032.75;5046555;28;20048;-76
2023/02/23 09:45:36;;;;;;;27.77;17.67;;;;;;;9.66;54.21;101043.56;5063092;28;20060;-77
2023/02/23 09:48:17;;;;;;;31.42;18.55;;;;;;;9.68;53.99;101049.75;5054994;28;20135;-76
2023/02/23 09:50:49;;;;;;;32.25;18.75;;;;;;;9.68;53.64;101050.59;5046352;28;20049;-76
2023/02/23 09:53:29;;;;;;;32.10;19.52;;;;;;;9.68;54.35;101042.41;5063095;28;20044;-76
2023/02/23 09:56:03;;;;;;;30.45;17.65;;;;;;;9.67;53.92;101048.00;5048097;28;20517;-77
2023/02/23 09:58:34;;;;;;;29.63;17.67;;;;;;;9.72;53.74;101048.50;5044792;28;20059;-77
2023/02/23 10:01:17;;;;;;;31.75;18.80;;;;;;;9.73;53.80;101053.84;5047037;28;20109;-77
2023/02/23 10:03:54;;;;;;;29.70;18.25;;;;;;;9.74;54.04;101058.31;5059979;28;20720;-76
2023/02/23 10:06:22;;;;;;;29.17;17.05;;;;;;;9.74;53.90;101062.94;5063091;28;20437;-75
2023/02/23 10:09:03;;;;;;;31.63;19.33;;;;;;;9.77;54.23;101062.66;5061338;28;20043;-77
2023/02/23 10:11:37;;;;;;;32.95;19.13;;;;;;;9.78;53.51;101062.53;5061905;28;21089;-76
2023/02/23 10:14:22;;;;;;;31.35;18.42;;;;;;;9.78;53.65;101062.53;5064551;28;20055;-76
2023/02/23 10:17:09;;;;;;;31.52;17.70;;;;;;;9.77;53.83;101066.28;5067659;28;20139;-77
2023/02/23 10:19:44;;;;;;;34.17;18.60;;;;;;;9.78;53.71;101070.75;5064852;28;20132;-77
2023/02/23 10:22:15;;;;;;;32.58;17.23;;;;;;;9.78;53.63;101069.88;5069457;28;20041;-76
2023/02/23 10:24:47;;;;;;;31.35;17.98;;;;;;;9.79;53.59;101074.34;5067047;28;20052;-76
2023/02/23 10:27:17;;;;;;;28.70;16.67;;;;;;;9.78;53.20;101081.69;5068157;28;20111;-77
2023/02/23 10:29:51;;;;;;;28.63;16.65;;;;;;;9.79;53.19;101082.56;5067952;28;20046;-77
2023/02/23 10:32:24;;;;;;;29.35;16.88;;;;;;;9.78;53.08;101083.53;5049400;28;20048;-77
2023/02/23 10:34:55;;;;;;;28.20;16.75;;;;;;;9.78;53.18;101089.88;5066073;28;20048;-77
2023/02/23 10:37:25;;;;;;;29.52;17.10;;;;;;;9.78;53.17;101095.34;5062630;28;20462;-76
2023/02/23 10:39:53;;;;;;;27.83;15.60;;;;;;;9.77;53.39;101090.88;5062445;28;20151;-78
2023/02/23 10:42:27;;;;;;;25.77;14.98;;;;;;;9.77;53.35;101088.13;5053940;28;20535;-77
2023/02/23 10:44:58;;;;;;;25.77;14.93;;;;;;;9.77;53.07;101096.34;5048415;28;20052;-77
2023/02/23 10:47:29;;;;;;;27.27;15.82;;;;;;;9.78;52.95;101095.34;5071043;28;20068;-77
2023/02/23 10:49:58;;;;;;;27.88;15.38;;;;;;;9.77;53.23;101098.19;5067062;28;20098;-77
2023/02/23 10:52:32;;;;;;;25.85;15.48;;;;;;;9.77;53.21;101085.41;5067219;28;20048;-77
2023/02/23 10:55:04;;;;;;;27.60;15.40;;;;;;;9.75;53.13;101090.09;5041312;28;20059;-77
2023/02/23 10:57:36;;;;;;;27.25;14.88;;;;;;;9.76;52.71;101083.66;5051699;28;20041;-77
2023/02/23 11:00:26;;;;;;;27.73;15.65;;;;;;;9.75;52.70;101092.84;5049147;28;20087;-77
2023/02/23 11:02:57;;;;;;;26.55;14.73;;;;;;;9.75;52.62;101086.50;5064432;28;20131;-77
2023/02/23 11:05:34;;;;;;;26.38;14.55;;;;;;;9.76;52.45;101090.97;5066827;28;20045;-76
2023/02/23 11:08:19;;;;;;;27.20;14.50;;;;;;;9.76;52.63;101091.84;5048273;28;20079;-79
2023/02/23 11:11:01;;;;;;;30.50;15.23;;;;;;;9.74;52.88;101099.31;5063576;28;20123;-77
2023/02/23 11:13:35;;;;;;;28.55;15.15;;;;;;;9.74;53.02;101095.72;5062820;28;20059;-77
2023/02/23 11:16:08;;;;;;;25.10;15.05;;;;;;;9.73;52.59;101097.59;5049280;28;20059;-77
2023/02/23 11:18:39;;;;;;;28.17;14.55;;;;;;;9.73;52.89;101096.72;5046663;28;20045;-76
2023/02/23 11:21:12;;;;;;;24.35;13.85;;;;;;;9.74;52.72;101098.47;5044156;28;20281;-76
2023/02/23 11:23:41;;;;;;;25.75;14.07;;;;;;;9.74;52.37;101098.47;5064974;28;20086;-76
2023/02/23 11:26:37;;;;;;;23.88;13.05;;;;;;;9.71;52.37;101099.56;5067196;28;20048;-76
2023/02/23 11:29:14;;;;;;;24.50;12.25;;;;;;;9.71;52.85;101102.31;5058552;28;20139;-76
2023/02/23 11:31:49;;;;;;;24.95;12.80;;;;;;;9.71;52.70;101099.56;5068077;28;20507;-76
2023/02/23 11:34:27;;;;;;;22.15;12.75;;;;;;;9.71;52.45;101096.84;5067417;28;20789;-76
2023/02/23 11:37:01;;;;;;;22.88;12.43;;;;;;;9.72;52.19;101097.72;5050821;28;20037;-76
2023/02/23 11:39:29;;;;;;;21.27;10.07;;;;;;;9.71;53.02;101085.91;5048344;28;20068;-76
2023/02/23 11:42:13;;;;;;;17.77;10.32;;;;;;;9.76;53.56;101082.78;5066402;28;20036;-74
2023/02/23 11:44:41;;;;;;;21.73;10.93;;;;;;;9.76;53.79;101080.91;5065416;28;20132;-76
2023/02/23 11:47:19;;;;;;;21.08;11.70;;;;;;;9.85;53.65;101077.44;5046713;28;20036;-76
2023/02/23 11:49:49;;;;;;;21.67;11.65;;;;;;;9.88;53.63;101078.19;5064679;28;20044;-77
2023/02/23 11:52:19;;;;;;;18.70;10.82;;;;;;;9.93;53.35;101078.69;5064037;28;20044;-77
2023/02/23 11:54:52;;;;;;;21.17;12.05;;;;;;;9.97;53.23;101085.66;5057284;28;20518;-76
2023/02/23 11:57:21;;;;;;;21.88;11.40;;;;;;;9.98;53.06;101088.28;5045987;28;20041;-76
2023/02/23 11:59:50;;;;;;;21.75;11.85;;;;;;;10.02;52.64;101078.81;5052138;28;20089;-76
2023/02/23 12:02:25;;;;;;;24.35;13.65;;;;;;;10.07;52.51;101078.44;5066967;28;20692;-76
2023/02/23 12:05:02;;;;;;;22.15;11.75;;;;;;;10.07;52.78;101086.66;5067158;28;20051;-76
2023/02/23 12:07:40;;;;;;;24.00;12.65;;;;;;;10.08;52.20;101075.56;5069377;28;20067;-76
2023/02/23 12:10:16;;;;;;;23.10;12.80;;;;;;;10.11;51.86;101085.38;5063051;28;20339;-76
2023/02/23 12:12:54;;;;;;;24.80;13.13;;;;;;;10.11;51.77;101085.38;5064935;28;20166;-76
2023/02/23 12:15:34;;;;;;;22.52;13.13;;;;;;;10.10;51.96;101080.91;5066949;28;20544;-76
2023/02/23 12:18:10;;;;;;;22.35;12.93;;;;;;;10.10;51.53;101083.66;5066990;28;20060;-76
2023/02/23 12:20:43;;;;;;;23.10;13.18;;;;;;;10.08;51.31;101085.63;5048748;28;20512;-76
2023/02/23 12:23:13;;;;;;;;;;;;;;;9.80;52.37;101079.69;5049457;28;20048;-76
2023/02/23 12:25:47;;;;;;;20.58;10.75;;;;;;;10.01;51.47;101070.72;5068011;28;19921;-76
2023/02/23 12:28:24;;;;;;;20.27;10.18;;;;;;;10.02;51.06;101078.81;5064018;28;20544;-76
2023/02/23 12:30:57;;;;;;;18.27;10.25;;;;;;;10.00;51.55;101082.66;5068943;28;20054;-77
2023/02/23 12:33:32;;;;;;;;;;;;;;;9.71;52.17;101085.03;5051316;28;20067;-76
2023/02/23 12:36:06;;;;;;;18.77;9.95;;;;;;;9.91;51.75;101080.66;5063261;28;20397;-77
2023/02/23 12:38:49;;;;;;;17.45;9.68;;;;;;;9.94;51.10;101085.91;5064504;28;20554;-76
2023/02/23 12:41:31;;;;;;;17.40;9.85;;;;;;;9.89;51.15;101083.56;5066571;28;20047;-76
2023/02/23 12:44:05;;;;;;;19.40;10.43;;;;;;;9.87;51.62;101087.41;5050315;28;20036;-75
2023/02/23 12:46:42;;;;;;;18.92;10.27;;;;;;;9.87;51.58;101084.66;5066325;28;20131;-76
2023/02/23 12:49:19;;;;;;;18.45;10.32;;;;;;;9.86;51.05;101086.53;5090916;22;20492;-80
2023/02/23 12:51:52;;;;;;;18.40;10.38;;;;;;;9.84;51.38;101088.50;5066596;28;20041;-78
2023/02/23 12:54:20;;;;;;;17.92;10.20;;;;;;;9.81;51.14;101084.19;5064108;28;20036;-79
2023/02/23 12:57:03;;;;;;;18.75;10.40;;;;;;;9.84;51.30;101083.03;5050052;28;20048;-77